sensor_id;sensor_type;location;lat;lon;timestamp;temperature;humidity
22996;DHT22;11664;49.774;8.650;2023-01-29T00:01:07;0.50;99.90
22996;DHT22;11664;49.774;8.650;2023-01-29T00:03:50;0.50;99.90
22996;DHT22;11664;49.774;8.650;2023-01-29T00:06:19;0.50;99.90
22996;DHT22;11664;49.774;8.650;2023-01-29T00:08:50;0.50;99.90
22996;DHT22;11664;49.774;8.650;2023-01-29T00:11:19;0.40;99.90
22996;DHT22;11664;49.774;8.650;2023-01-29T00:13:54;0.40;99.90
22996;DHT22;11664;49.774;8.650;2023-01-29T00:16:20;0.40;99.90
22996;DHT22;11664;49.774;8.650;2023-01-29T00:18:51;0.40;99.90
22996;DHT22;11664;49.774;8.650;2023-01-29T00:21:19;0.40;99.90
22996;DHT22;11664;49.774;8.650;2023-01-29T00:23:47;0.40;99.90
22996;DHT22;11664;49.774;8.650;2023-01-29T00:26:13;0.40;99.90
22996;DHT22;11664;49.774;8.650;2023-01-29T00:28:42;0.40;99.90
22996;DHT22;11664;49.774;8.650;2023-01-29T00:31:26;0.40;99.90
22996;DHT22;11664;49.774;8.650;2023-01-29T00:33:52;0.40;99.90
22996;DHT22;11664;49.774;8.650;2023-01-29T00:36:29;0.40;99.90
22996;DHT22;11664;49.774;8.650;2023-01-29T00:39:01;0.40;99.90
22996;DHT22;11664;49.774;8.650;2023-01-29T00:41:44;0.40;99.90
22996;DHT22;11664;49.774;8.650;2023-01-29T00:44:28;0.40;99.90
22996;DHT22;11664;49.774;8.650;2023-01-29T00:47:15;0.40;99.90
22996;DHT22;11664;49.774;8.650;2023-01-29T00:50:01;0.50;99.90
22996;DHT22;11664;49.774;8.650;2023-01-29T00:52:46;0.50;99.90
22996;DHT22;11664;49.774;8.650;2023-01-29T00:55:23;0.50;99.90
22996;DHT22;11664;49.774;8.650;2023-01-29T00:57:48;0.50;99.90
22996;DHT22;11664;49.774;8.650;2023-01-29T01:00:17;0.50;99.90
22996;DHT22;11664;49.774;8.650;2023-01-29T01:02:55;0.50;99.90
22996;DHT22;11664;49.774;8.650;2023-01-29T01:05:39;0.50;99.90
22996;DHT22;11664;49.774;8.650;2023-01-29T01:08:07;0.50;99.90
22996;DHT22;11664;49.774;8.650;2023-01-29T01:11:00;0.50;99.90
22996;DHT22;11664;49.774;8.650;2023-01-29T01:13:33;0.40;99.90
22996;DHT22;11664;49.774;8.650;2023-01-29T01:16:13;0.50;99.90
22996;DHT22;11664;49.774;8.650;2023-01-29T01:18:51;0.50;99.90
22996;DHT22;11664;49.774;8.650;2023-01-29T01:21:17;0.50;99.90
22996;DHT22;11664;49.774;8.650;2023-01-29T01:23:46;0.50;99.90
22996;DHT22;11664;49.774;8.650;2023-01-29T01:26:12;0.50;99.90
22996;DHT22;11664;49.774;8.650;2023-01-29T01:32:00;0.50;99.90
22996;DHT22;11664;49.774;8.650;2023-01-29T01:34:26;0.50;99.90
22996;DHT22;11664;49.774;8.650;2023-01-29T01:36:52;0.50;99.90
22996;DHT22;11664;49.774;8.650;2023-01-29T01:39:18;0.50;99.90
22996;DHT22;11664;49.774;8.650;2023-01-29T01:41:46;0.50;99.90
22996;DHT22;11664;49.774;8.650;2023-01-29T01:47:34;0.50;99.90
22996;DHT22;11664;49.774;8.650;2023-01-29T01:50:06;0.50;99.90
22996;DHT22;11664;49.774;8.650;2023-01-29T01:52:39;0.50;99.90
22996;DHT22;11664;49.774;8.650;2023-01-29T01:55:12;0.40;99.90
22996;DHT22;11664;49.774;8.650;2023-01-29T01:57:40;0.50;99.90
22996;DHT22;11664;49.774;8.650;2023-01-29T02:00:17;0.40;99.90
22996;DHT22;11664;49.774;8.650;2023-01-29T02:02:49;0.40;99.90
22996;DHT22;11664;49.774;8.650;2023-01-29T02:05:45;0.40;99.90
22996;DHT22;11664;49.774;8.650;2023-01-29T02:09:04;0.40;99.90
22996;DHT22;11664;49.774;8.650;2023-01-29T02:11:49;0.40;99.90
22996;DHT22;11664;49.774;8.650;2023-01-29T02:14:21;0.40;99.90
22996;DHT22;11664;49.774;8.650;2023-01-29T02:16:53;0.40;99.90
22996;DHT22;11664;49.774;8.650;2023-01-29T02:19:56;0.40;99.90
22996;DHT22;11664;49.774;8.650;2023-01-29T02:31:32;0.30;99.90
22996;DHT22;11664;49.774;8.650;2023-01-29T02:34:21;0.20;99.90
22996;DHT22;11664;49.774;8.650;2023-01-29T02:37:02;0.20;99.90
22996;DHT22;11664;49.774;8.650;2023-01-29T02:39:48;0.10;99.90
22996;DHT22;11664;49.774;8.650;2023-01-29T02:44:53;0.00;99.90
22996;DHT22;11664;49.774;8.650;2023-01-29T07:46:44;-0.40;99.90
22996;DHT22;11664;49.774;8.650;2023-01-29T07:49:13;-0.40;99.90
22996;DHT22;11664;49.774;8.650;2023-01-29T07:51:38;-0.40;99.90
22996;DHT22;11664;49.774;8.650;2023-01-29T07:54:04;-0.30;99.90
22996;DHT22;11664;49.774;8.650;2023-01-29T07:56:29;-0.30;99.90
22996;DHT22;11664;49.774;8.650;2023-01-29T07:58:55;-0.20;99.90
22996;DHT22;11664;49.774;8.650;2023-01-29T08:01:21;-0.20;99.90
22996;DHT22;11664;49.774;8.650;2023-01-29T08:03:46;-0.10;99.90
22996;DHT22;11664;49.774;8.650;2023-01-29T08:09:35;0.10;99.90
22996;DHT22;11664;49.774;8.650;2023-01-29T08:12:00;0.20;99.90
22996;DHT22;11664;49.774;8.650;2023-01-29T08:14:27;0.30;99.90
22996;DHT22;11664;49.774;8.650;2023-01-29T08:16:52;0.40;99.90
22996;DHT22;11664;49.774;8.650;2023-01-29T08:19:19;0.40;99.90
22996;DHT22;11664;49.774;8.650;2023-01-29T08:21:45;0.50;99.90
22996;DHT22;11664;49.774;8.650;2023-01-29T08:24:10;0.60;99.90
22996;DHT22;11664;49.774;8.650;2023-01-29T08:26:36;0.60;99.90
22996;DHT22;11664;49.774;8.650;2023-01-29T08:29:01;0.60;99.90
22996;DHT22;11664;49.774;8.650;2023-01-29T08:31:26;0.60;99.90
22996;DHT22;11664;49.774;8.650;2023-01-29T08:33:53;0.70;99.90
22996;DHT22;11664;49.774;8.650;2023-01-29T08:36:19;0.70;99.90
22996;DHT22;11664;49.774;8.650;2023-01-29T08:38:45;0.80;99.90
22996;DHT22;11664;49.774;8.650;2023-01-29T08:41:10;0.80;99.90
22996;DHT22;11664;49.774;8.650;2023-01-29T08:43:36;0.80;99.90
22996;DHT22;11664;49.774;8.650;2023-01-29T08:46:03;0.90;99.90
22996;DHT22;11664;49.774;8.650;2023-01-29T08:48:29;0.90;99.90
22996;DHT22;11664;49.774;8.650;2023-01-29T08:50:59;0.90;99.90
22996;DHT22;11664;49.774;8.650;2023-01-29T08:53:25;1.00;99.90
22996;DHT22;11664;49.774;8.650;2023-01-29T08:55:51;1.00;99.90
22996;DHT22;11664;49.774;8.650;2023-01-29T08:58:17;1.00;99.90
22996;DHT22;11664;49.774;8.650;2023-01-29T09:00:43;1.10;99.90
22996;DHT22;11664;49.774;8.650;2023-01-29T09:03:09;1.20;99.90
22996;DHT22;11664;49.774;8.650;2023-01-29T09:05:38;1.30;99.90
22996;DHT22;11664;49.774;8.650;2023-01-29T09:08:04;1.40;99.90
22996;DHT22;11664;49.774;8.650;2023-01-29T09:10:30;1.30;99.90
22996;DHT22;11664;49.774;8.650;2023-01-29T09:12:55;1.40;99.90
22996;DHT22;11664;49.774;8.650;2023-01-29T09:15:22;1.50;99.90
22996;DHT22;11664;49.774;8.650;2023-01-29T09:17:47;1.60;99.90
22996;DHT22;11664;49.774;8.650;2023-01-29T09:20:16;1.70;99.90
22996;DHT22;11664;49.774;8.650;2023-01-29T09:22:42;1.80;99.90
22996;DHT22;11664;49.774;8.650;2023-01-29T09:25:08;1.60;99.90
22996;DHT22;11664;49.774;8.650;2023-01-29T09:27:34;1.50;99.90
22996;DHT22;11664;49.774;8.650;2023-01-29T09:29:59;1.40;99.90
22996;DHT22;11664;49.774;8.650;2023-01-29T09:32:25;1.30;99.90
22996;DHT22;11664;49.774;8.650;2023-01-29T09:34:51;1.30;99.90
22996;DHT22;11664;49.774;8.650;2023-01-29T09:37:16;1.30;99.90
22996;DHT22;11664;49.774;8.650;2023-01-29T09:39:42;1.30;99.90
22996;DHT22;11664;49.774;8.650;2023-01-29T09:42:27;1.30;99.90
22996;DHT22;11664;49.774;8.650;2023-01-29T09:47:34;1.20;99.90
22996;DHT22;11664;49.774;8.650;2023-01-29T09:50:04;1.00;99.90
22996;DHT22;11664;49.774;8.650;2023-01-29T09:53:17;1.00;99.90
22996;DHT22;11664;49.774;8.650;2023-01-29T09:55:37;1.10;99.90
22996;DHT22;11664;49.774;8.650;2023-01-29T09:58:39;1.20;99.90
22996;DHT22;11664;49.774;8.650;2023-01-29T10:03:44;1.10;99.90
22996;DHT22;11664;49.774;8.650;2023-01-29T10:09:28;1.10;99.90
22996;DHT22;11664;49.774;8.650;2023-01-29T10:12:13;1.10;99.90
22996;DHT22;11664;49.774;8.650;2023-01-29T10:17:32;1.20;99.90
22996;DHT22;11664;49.774;8.650;2023-01-29T10:25:22;1.30;99.90
22996;DHT22;11664;49.774;8.650;2023-01-29T10:27:51;1.20;99.90
22996;DHT22;11664;49.774;8.650;2023-01-29T10:30:37;1.30;99.90
22996;DHT22;11664;49.774;8.650;2023-01-29T10:36:05;1.30;99.90
22996;DHT22;11664;49.774;8.650;2023-01-29T10:44:29;1.50;99.90
22996;DHT22;11664;49.774;8.650;2023-01-29T10:47:21;1.80;99.90
22996;DHT22;11664;49.774;8.650;2023-01-29T10:55:33;1.80;99.90
22996;DHT22;11664;49.774;8.650;2023-01-29T11:00:51;1.70;99.90
22996;DHT22;11664;49.774;8.650;2023-01-29T11:03:21;1.60;99.90
22996;DHT22;11664;49.774;8.650;2023-01-29T11:05:55;1.50;99.90
22996;DHT22;11664;49.774;8.650;2023-01-29T11:08:27;1.40;99.90
22996;DHT22;11664;49.774;8.650;2023-01-29T11:11:06;1.50;99.90
22996;DHT22;11664;49.774;8.650;2023-01-29T11:13:54;1.80;99.90
22996;DHT22;11664;49.774;8.650;2023-01-29T11:16:22;2.00;99.90
22996;DHT22;11664;49.774;8.650;2023-01-29T11:18:53;2.00;99.90
22996;DHT22;11664;49.774;8.650;2023-01-29T11:21:21;1.90;99.90
22996;DHT22;11664;49.774;8.650;2023-01-29T11:23:47;2.00;99.90
22996;DHT22;11664;49.774;8.650;2023-01-29T11:26:17;2.00;99.90
22996;DHT22;11664;49.774;8.650;2023-01-29T11:28:47;1.90;99.90
22996;DHT22;11664;49.774;8.650;2023-01-29T11:31:26;2.10;99.90
22996;DHT22;11664;49.774;8.650;2023-01-29T11:34:02;2.50;99.90
22996;DHT22;11664;49.774;8.650;2023-01-29T11:36:35;2.60;99.90
22996;DHT22;11664;49.774;8.650;2023-01-29T11:42:03;3.10;99.90
22996;DHT22;11664;49.774;8.650;2023-01-29T11:49:43;3.30;99.90
22996;DHT22;11664;49.774;8.650;2023-01-29T11:52:10;3.30;99.90
22996;DHT22;11664;49.774;8.650;2023-01-29T11:54:49;3.20;99.90
22996;DHT22;11664;49.774;8.650;2023-01-29T11:59:53;2.60;99.90
22996;DHT22;11664;49.774;8.650;2023-01-29T12:02:40;2.50;99.90
22996;DHT22;11664;49.774;8.650;2023-01-29T12:05:17;2.40;99.90
22996;DHT22;11664;49.774;8.650;2023-01-29T12:07:49;2.40;99.90
22996;DHT22;11664;49.774;8.650;2023-01-29T12:13:08;2.10;99.90
22996;DHT22;11664;49.774;8.650;2023-01-29T12:15:44;2.10;99.90
22996;DHT22;11664;49.774;8.650;2023-01-29T12:18:36;2.30;99.90
22996;DHT22;11664;49.774;8.650;2023-01-29T12:21:09;2.00;99.90
22996;DHT22;11664;49.774;8.650;2023-01-29T12:23:56;2.00;99.90
22996;DHT22;11664;49.774;8.650;2023-01-29T12:26:31;2.10;99.90
22996;DHT22;11664;49.774;8.650;2023-01-29T12:29:24;2.10;99.90
22996;DHT22;11664;49.774;8.650;2023-01-29T12:37:40;1.70;99.90
22996;DHT22;11664;49.774;8.650;2023-01-29T12:40:13;2.00;99.90
22996;DHT22;11664;49.774;8.650;2023-01-29T12:42:42;2.40;99.90
22996;DHT22;11664;49.774;8.650;2023-01-29T12:45:19;2.50;99.90
22996;DHT22;11664;49.774;8.650;2023-01-29T12:47:55;2.60;99.90
22996;DHT22;11664;49.774;8.650;2023-01-29T12:50:26;2.70;99.90
22996;DHT22;11664;49.774;8.650;2023-01-29T12:55:44;2.50;99.90
22996;DHT22;11664;49.774;8.650;2023-01-29T13:01:37;2.30;99.90
22996;DHT22;11664;49.774;8.650;2023-01-29T13:07:11;2.50;99.90
22996;DHT22;11664;49.774;8.650;2023-01-29T13:09:38;2.60;99.90
22996;DHT22;11664;49.774;8.650;2023-01-29T13:12:17;2.40;99.90
22996;DHT22;11664;49.774;8.650;2023-01-29T13:14:44;2.60;99.90
22996;DHT22;11664;49.774;8.650;2023-01-29T13:17:32;2.40;99.90
22996;DHT22;11664;49.774;8.650;2023-01-29T13:20:04;2.60;99.90
22996;DHT22;11664;49.774;8.650;2023-01-29T13:22:37;2.60;99.90
22996;DHT22;11664;49.774;8.650;2023-01-29T13:25:04;2.90;99.90
22996;DHT22;11664;49.774;8.650;2023-01-29T13:27:32;2.50;99.90
22996;DHT22;11664;49.774;8.650;2023-01-29T13:29:58;2.50;99.90
22996;DHT22;11664;49.774;8.650;2023-01-29T13:32:29;2.60;99.90
22996;DHT22;11664;49.774;8.650;2023-01-29T13:35:02;2.80;99.90
22996;DHT22;11664;49.774;8.650;2023-01-29T13:37:34;2.70;99.90
22996;DHT22;11664;49.774;8.650;2023-01-29T13:40:02;2.70;99.90
22996;DHT22;11664;49.774;8.650;2023-01-29T13:42:50;2.60;99.90
22996;DHT22;11664;49.774;8.650;2023-01-29T13:45:23;2.60;99.90
22996;DHT22;11664;49.774;8.650;2023-01-29T13:47:51;2.50;99.90
22996;DHT22;11664;49.774;8.650;2023-01-29T13:50:24;2.50;99.90
22996;DHT22;11664;49.774;8.650;2023-01-29T13:52:59;2.50;99.90
22996;DHT22;11664;49.774;8.650;2023-01-29T13:55:34;2.30;99.90
22996;DHT22;11664;49.774;8.650;2023-01-29T13:58:12;2.30;99.90
22996;DHT22;11664;49.774;8.650;2023-01-29T14:05:43;2.90;99.90
22996;DHT22;11664;49.774;8.650;2023-01-29T14:10:35;3.00;99.90
22996;DHT22;11664;49.774;8.650;2023-01-29T14:15:37;3.60;99.90
22996;DHT22;11664;49.774;8.650;2023-01-29T14:20:37;3.80;99.90
22996;DHT22;11664;49.774;8.650;2023-01-29T14:23:04;3.80;99.90
22996;DHT22;11664;49.774;8.650;2023-01-29T14:25:37;3.30;99.90
22996;DHT22;11664;49.774;8.650;2023-01-29T14:28:14;3.00;99.90
22996;DHT22;11664;49.774;8.650;2023-01-29T14:30:45;2.70;99.90
22996;DHT22;11664;49.774;8.650;2023-01-29T14:33:36;2.60;99.90
22996;DHT22;11664;49.774;8.650;2023-01-29T14:36:12;2.50;99.90
22996;DHT22;11664;49.774;8.650;2023-01-29T14:38:39;2.40;99.90
22996;DHT22;11664;49.774;8.650;2023-01-29T14:41:28;2.40;99.90
22996;DHT22;11664;49.774;8.650;2023-01-29T14:47:00;2.30;99.90
22996;DHT22;11664;49.774;8.650;2023-01-29T14:49:52;2.20;99.90
22996;DHT22;11664;49.774;8.650;2023-01-29T14:52:19;2.00;99.90
22996;DHT22;11664;49.774;8.650;2023-01-29T14:54:46;2.00;99.90
22996;DHT22;11664;49.774;8.650;2023-01-29T14:57:15;2.00;99.90
22996;DHT22;11664;49.774;8.650;2023-01-29T15:00:05;1.90;99.90
22996;DHT22;11664;49.774;8.650;2023-01-29T15:02:43;1.90;99.90
22996;DHT22;11664;49.774;8.650;2023-01-29T15:05:21;1.90;99.90
22996;DHT22;11664;49.774;8.650;2023-01-29T15:07:52;1.80;99.90
22996;DHT22;11664;49.774;8.650;2023-01-29T15:10:32;1.80;99.90
22996;DHT22;11664;49.774;8.650;2023-01-29T15:13:03;1.80;99.90
22996;DHT22;11664;49.774;8.650;2023-01-29T15:15:43;1.80;99.90
22996;DHT22;11664;49.774;8.650;2023-01-29T15:18:33;1.80;99.90
22996;DHT22;11664;49.774;8.650;2023-01-29T15:21:02;1.80;99.90
22996;DHT22;11664;49.774;8.650;2023-01-29T15:23:30;1.70;99.90
22996;DHT22;11664;49.774;8.650;2023-01-29T15:25:58;1.70;99.90
22996;DHT22;11664;49.774;8.650;2023-01-29T15:28:28;1.60;99.90
22996;DHT22;11664;49.774;8.650;2023-01-29T15:30:56;1.60;99.90
22996;DHT22;11664;49.774;8.650;2023-01-29T15:33:24;1.60;99.90
22996;DHT22;11664;49.774;8.650;2023-01-29T15:35:58;1.50;99.90
22996;DHT22;11664;49.774;8.650;2023-01-29T15:38:25;1.50;99.90
22996;DHT22;11664;49.774;8.650;2023-01-29T15:40:59;1.50;99.90
22996;DHT22;11664;49.774;8.650;2023-01-29T15:43:27;1.40;99.90
22996;DHT22;11664;49.774;8.650;2023-01-29T15:46:11;1.40;99.90
22996;DHT22;11664;49.774;8.650;2023-01-29T15:48:41;1.40;99.90
22996;DHT22;11664;49.774;8.650;2023-01-29T15:51:19;1.30;99.90
22996;DHT22;11664;49.774;8.650;2023-01-29T15:53:59;1.30;99.90
22996;DHT22;11664;49.774;8.650;2023-01-29T15:56:29;1.20;99.90
22996;DHT22;11664;49.774;8.650;2023-01-29T15:59:04;1.20;99.90
22996;DHT22;11664;49.774;8.650;2023-01-29T16:01:31;1.20;99.90
22996;DHT22;11664;49.774;8.650;2023-01-29T16:03:58;1.10;99.90
22996;DHT22;11664;49.774;8.650;2023-01-29T16:06:38;1.00;99.90
22996;DHT22;11664;49.774;8.650;2023-01-29T16:09:17;1.00;99.90
22996;DHT22;11664;49.774;8.650;2023-01-29T16:11:47;0.90;99.90
22996;DHT22;11664;49.774;8.650;2023-01-29T16:14:20;0.80;99.90
22996;DHT22;11664;49.774;8.650;2023-01-29T16:16:53;0.70;99.90
22996;DHT22;11664;49.774;8.650;2023-01-29T16:19:28;0.60;99.90
22996;DHT22;11664;49.774;8.650;2023-01-29T16:21:58;0.50;99.90
22996;DHT22;11664;49.774;8.650;2023-01-29T16:24:40;0.50;99.90
22996;DHT22;11664;49.774;8.650;2023-01-29T16:27:11;0.40;99.90
22996;DHT22;11664;49.774;8.650;2023-01-29T16:29:37;0.30;99.90
22996;DHT22;11664;49.774;8.650;2023-01-29T16:32:04;0.30;99.90
22996;DHT22;11664;49.774;8.650;2023-01-29T16:34:38;0.20;99.90
22996;DHT22;11664;49.774;8.650;2023-01-29T16:37:07;0.10;99.90
22996;DHT22;11664;49.774;8.650;2023-01-29T16:39:44;0.00;99.90
22996;DHT22;11664;49.774;8.650;2023-01-29T16:45:03;-0.10;99.90
22996;DHT22;11664;49.774;8.650;2023-01-29T16:47:39;-0.20;99.90
22996;DHT22;11664;49.774;8.650;2023-01-29T16:53:17;-0.30;99.90
22996;DHT22;11664;49.774;8.650;2023-01-29T16:55:47;-0.30;99.90
22996;DHT22;11664;49.774;8.650;2023-01-29T16:58:24;-0.40;99.90
22996;DHT22;11664;49.774;8.650;2023-01-29T17:00:55;-0.40;99.90
22996;DHT22;11664;49.774;8.650;2023-01-29T17:03:24;-0.40;99.90
22996;DHT22;11664;49.774;8.650;2023-01-29T17:05:51;-0.50;99.90
22996;DHT22;11664;49.774;8.650;2023-01-29T17:08:23;-0.50;99.90
22996;DHT22;11664;49.774;8.650;2023-01-29T17:10:49;-0.40;99.90
22996;DHT22;11664;49.774;8.650;2023-01-29T17:13:37;-0.30;99.90
22996;DHT22;11664;49.774;8.650;2023-01-29T17:16:24;-0.30;99.90
22996;DHT22;11664;49.774;8.650;2023-01-29T17:18:50;-0.40;99.90
22996;DHT22;11664;49.774;8.650;2023-01-29T17:21:19;-0.40;99.90
22996;DHT22;11664;49.774;8.650;2023-01-29T17:23:45;-0.50;99.90
22996;DHT22;11664;49.774;8.650;2023-01-29T17:26:12;-0.50;99.90
22996;DHT22;11664;49.774;8.650;2023-01-29T17:28:39;-0.50;99.90
22996;DHT22;11664;49.774;8.650;2023-01-29T17:31:05;-0.50;99.90
22996;DHT22;11664;49.774;8.650;2023-01-29T17:33:36;-0.50;99.90
22996;DHT22;11664;49.774;8.650;2023-01-29T17:36:14;-0.50;99.90
22996;DHT22;11664;49.774;8.650;2023-01-29T17:38:40;-0.40;99.90
22996;DHT22;11664;49.774;8.650;2023-01-29T17:44:06;-0.30;99.90
22996;DHT22;11664;49.774;8.650;2023-01-29T17:46:38;-0.30;99.90
22996;DHT22;11664;49.774;8.650;2023-01-29T17:51:54;-0.30;99.90
22996;DHT22;11664;49.774;8.650;2023-01-29T17:54:23;-0.40;99.90
22996;DHT22;11664;49.774;8.650;2023-01-29T17:56:53;-0.40;99.90
22996;DHT22;11664;49.774;8.650;2023-01-29T17:59:23;-0.40;99.90
22996;DHT22;11664;49.774;8.650;2023-01-29T18:01:52;-0.40;99.90
22996;DHT22;11664;49.774;8.650;2023-01-29T18:04:18;-0.30;99.90
22996;DHT22;11664;49.774;8.650;2023-01-29T18:06:49;-0.40;99.90
22996;DHT22;11664;49.774;8.650;2023-01-29T18:09:17;-0.30;99.90
22996;DHT22;11664;49.774;8.650;2023-01-29T18:11:45;-0.30;99.90
22996;DHT22;11664;49.774;8.650;2023-01-29T18:14:20;-0.40;99.90
22996;DHT22;11664;49.774;8.650;2023-01-29T18:17:01;-0.40;99.90
22996;DHT22;11664;49.774;8.650;2023-01-29T18:19:29;-0.40;99.90
22996;DHT22;11664;49.774;8.650;2023-01-29T18:22:00;-0.30;99.90
22996;DHT22;11664;49.774;8.650;2023-01-29T18:24:26;-0.20;99.90
22996;DHT22;11664;49.774;8.650;2023-01-29T18:26:52;0.90;99.90
22996;DHT22;11664;49.774;8.650;2023-01-29T19:15:41;-0.50;99.90
22996;DHT22;11664;49.774;8.650;2023-01-29T19:18:07;-0.50;99.90
22996;DHT22;11664;49.774;8.650;2023-01-29T19:20:33;-0.50;99.90
22996;DHT22;11664;49.774;8.650;2023-01-29T19:22:58;-0.50;99.90
22996;DHT22;11664;49.774;8.650;2023-01-29T19:25:24;-0.40;99.90
22996;DHT22;11664;49.774;8.650;2023-01-29T19:27:49;-0.40;99.90
22996;DHT22;11664;49.774;8.650;2023-01-29T19:30:15;-0.40;99.90
22996;DHT22;11664;49.774;8.650;2023-01-29T19:32:41;-0.20;99.90
22996;DHT22;11664;49.774;8.650;2023-01-29T19:35:06;-0.20;99.90
22996;DHT22;11664;49.774;8.650;2023-01-29T19:37:32;-0.20;99.90
22996;DHT22;11664;49.774;8.650;2023-01-29T19:39:57;-0.20;99.90
22996;DHT22;11664;49.774;8.650;2023-01-29T19:42:23;-0.20;99.90
22996;DHT22;11664;49.774;8.650;2023-01-29T19:44:49;-0.20;99.90
22996;DHT22;11664;49.774;8.650;2023-01-29T19:47:16;-0.20;99.90
22996;DHT22;11664;49.774;8.650;2023-01-29T19:49:41;0.00;99.90
22996;DHT22;11664;49.774;8.650;2023-01-29T19:52:07;0.00;99.90
22996;DHT22;11664;49.774;8.650;2023-01-29T19:54:39;0.00;99.90
22996;DHT22;11664;49.774;8.650;2023-01-29T19:57:07;-0.10;99.90
22996;DHT22;11664;49.774;8.650;2023-01-29T19:59:33;0.00;99.90
22996;DHT22;11664;49.774;8.650;2023-01-29T20:01:58;0.00;99.90
22996;DHT22;11664;49.774;8.650;2023-01-29T20:04:25;0.00;99.90
22996;DHT22;11664;49.774;8.650;2023-01-29T20:06:54;-0.10;99.90
22996;DHT22;11664;49.774;8.650;2023-01-29T20:09:20;0.00;99.90
22996;DHT22;11664;49.774;8.650;2023-01-29T20:11:52;0.00;99.90
22996;DHT22;11664;49.774;8.650;2023-01-29T20:14:21;0.00;99.90
22996;DHT22;11664;49.774;8.650;2023-01-29T20:16:46;-0.10;99.90
22996;DHT22;11664;49.774;8.650;2023-01-29T20:19:13;-0.10;99.90
22996;DHT22;11664;49.774;8.650;2023-01-29T20:21:39;-0.20;99.90
22996;DHT22;11664;49.774;8.650;2023-01-29T20:24:11;-0.20;99.90
22996;DHT22;11664;49.774;8.650;2023-01-29T20:26:52;-0.20;99.90
22996;DHT22;11664;49.774;8.650;2023-01-29T20:29:20;-0.20;99.90
22996;DHT22;11664;49.774;8.650;2023-01-29T20:31:46;-0.20;99.90
22996;DHT22;11664;49.774;8.650;2023-01-29T20:34:11;-0.20;99.90
22996;DHT22;11664;49.774;8.650;2023-01-29T20:36:37;-0.30;99.90
22996;DHT22;11664;49.774;8.650;2023-01-29T20:39:09;-0.30;99.90
22996;DHT22;11664;49.774;8.650;2023-01-29T20:41:34;-0.40;99.90
22996;DHT22;11664;49.774;8.650;2023-01-29T20:44:04;-0.40;99.90
22996;DHT22;11664;49.774;8.650;2023-01-29T20:46:36;-0.50;99.90
22996;DHT22;11664;49.774;8.650;2023-01-29T20:49:14;-0.60;99.90
22996;DHT22;11664;49.774;8.650;2023-01-29T20:51:48;-0.60;99.90
22996;DHT22;11664;49.774;8.650;2023-01-29T20:54:13;-0.60;99.90
22996;DHT22;11664;49.774;8.650;2023-01-29T20:56:47;-0.50;99.90
22996;DHT22;11664;49.774;8.650;2023-01-29T20:59:19;-0.60;99.90
22996;DHT22;11664;49.774;8.650;2023-01-29T21:01:45;-0.60;99.90
22996;DHT22;11664;49.774;8.650;2023-01-29T21:04:10;-0.60;99.90
22996;DHT22;11664;49.774;8.650;2023-01-29T21:06:54;-0.60;99.90
22996;DHT22;11664;49.774;8.650;2023-01-29T21:09:23;-0.60;99.90
22996;DHT22;11664;49.774;8.650;2023-01-29T21:11:52;-0.50;99.90
22996;DHT22;11664;49.774;8.650;2023-01-29T21:14:17;-0.50;99.90
22996;DHT22;11664;49.774;8.650;2023-01-29T21:16:43;-0.50;99.90
22996;DHT22;11664;49.774;8.650;2023-01-29T21:19:12;-0.40;99.90
22996;DHT22;11664;49.774;8.650;2023-01-29T21:21:38;-0.40;99.90
22996;DHT22;11664;49.774;8.650;2023-01-29T21:24:03;-0.40;99.90
22996;DHT22;11664;49.774;8.650;2023-01-29T21:26:32;-0.40;99.90
22996;DHT22;11664;49.774;8.650;2023-01-29T21:28:58;-0.30;99.90
22996;DHT22;11664;49.774;8.650;2023-01-29T21:31:26;-0.30;99.90
22996;DHT22;11664;49.774;8.650;2023-01-29T21:33:52;-0.30;99.90
22996;DHT22;11664;49.774;8.650;2023-01-29T21:36:20;-0.30;99.90
22996;DHT22;11664;49.774;8.650;2023-01-29T21:38:46;-0.20;99.90
22996;DHT22;11664;49.774;8.650;2023-01-29T21:41:11;-0.10;99.90
22996;DHT22;11664;49.774;8.650;2023-01-29T21:43:46;0.00;99.90
22996;DHT22;11664;49.774;8.650;2023-01-29T21:46:15;0.10;99.90
22996;DHT22;11664;49.774;8.650;2023-01-29T21:48:56;0.20;99.90
22996;DHT22;11664;49.774;8.650;2023-01-29T21:51:24;0.30;99.90
22996;DHT22;11664;49.774;8.650;2023-01-29T21:53:53;0.30;99.90
22996;DHT22;11664;49.774;8.650;2023-01-29T21:56:21;0.40;99.90
22996;DHT22;11664;49.774;8.650;2023-01-29T21:58:50;0.50;99.90
22996;DHT22;11664;49.774;8.650;2023-01-29T22:01:22;0.50;99.90
22996;DHT22;11664;49.774;8.650;2023-01-29T22:03:47;0.50;99.90
22996;DHT22;11664;49.774;8.650;2023-01-29T22:06:16;0.50;99.90
22996;DHT22;11664;49.774;8.650;2023-01-29T22:08:42;0.50;99.90
22996;DHT22;11664;49.774;8.650;2023-01-29T22:11:14;0.50;99.90
22996;DHT22;11664;49.774;8.650;2023-01-29T22:13:45;0.60;99.90
22996;DHT22;11664;49.774;8.650;2023-01-29T22:16:20;0.60;99.90
22996;DHT22;11664;49.774;8.650;2023-01-29T22:18:55;0.60;99.90
22996;DHT22;11664;49.774;8.650;2023-01-29T22:21:22;0.60;99.90
22996;DHT22;11664;49.774;8.650;2023-01-29T22:23:57;0.60;99.90
22996;DHT22;11664;49.774;8.650;2023-01-29T22:26:28;0.60;99.90
22996;DHT22;11664;49.774;8.650;2023-01-29T22:28:55;0.60;99.90
22996;DHT22;11664;49.774;8.650;2023-01-29T22:31:30;0.70;99.90
22996;DHT22;11664;49.774;8.650;2023-01-29T22:34:12;0.70;99.90
22996;DHT22;11664;49.774;8.650;2023-01-29T22:36:43;0.70;99.90
22996;DHT22;11664;49.774;8.650;2023-01-29T22:39:15;0.70;99.90
22996;DHT22;11664;49.774;8.650;2023-01-29T22:41:41;0.80;99.90
22996;DHT22;11664;49.774;8.650;2023-01-29T22:44:09;0.70;99.90
22996;DHT22;11664;49.774;8.650;2023-01-29T22:46:35;0.80;99.90
22996;DHT22;11664;49.774;8.650;2023-01-29T22:49:04;0.80;99.90
22996;DHT22;11664;49.774;8.650;2023-01-29T22:51:29;0.80;99.90
22996;DHT22;11664;49.774;8.650;2023-01-29T22:53:57;0.80;99.90
22996;DHT22;11664;49.774;8.650;2023-01-29T22:56:24;0.90;99.90
22996;DHT22;11664;49.774;8.650;2023-01-29T22:59:00;0.90;99.90
22996;DHT22;11664;49.774;8.650;2023-01-29T23:01:28;0.90;99.90
22996;DHT22;11664;49.774;8.650;2023-01-29T23:04:00;0.90;99.90
22996;DHT22;11664;49.774;8.650;2023-01-29T23:06:28;1.00;99.90
22996;DHT22;11664;49.774;8.650;2023-01-29T23:08:57;1.00;99.90
22996;DHT22;11664;49.774;8.650;2023-01-29T23:11:32;1.10;99.90
22996;DHT22;11664;49.774;8.650;2023-01-29T23:14:03;1.10;99.90
22996;DHT22;11664;49.774;8.650;2023-01-29T23:16:32;1.10;99.90
22996;DHT22;11664;49.774;8.650;2023-01-29T23:18:57;1.10;99.90
22996;DHT22;11664;49.774;8.650;2023-01-29T23:21:24;1.10;99.90
22996;DHT22;11664;49.774;8.650;2023-01-29T23:23:50;1.20;99.90
22996;DHT22;11664;49.774;8.650;2023-01-29T23:26:28;1.10;99.90
22996;DHT22;11664;49.774;8.650;2023-01-29T23:29:13;1.20;99.90
22996;DHT22;11664;49.774;8.650;2023-01-29T23:31:41;1.20;99.90
22996;DHT22;11664;49.774;8.650;2023-01-29T23:34:16;1.20;99.90
22996;DHT22;11664;49.774;8.650;2023-01-29T23:36:42;1.20;99.90
22996;DHT22;11664;49.774;8.650;2023-01-29T23:39:08;1.30;99.90
22996;DHT22;11664;49.774;8.650;2023-01-29T23:41:36;1.30;99.90
22996;DHT22;11664;49.774;8.650;2023-01-29T23:44:08;1.30;99.90
22996;DHT22;11664;49.774;8.650;2023-01-29T23:46:34;1.40;99.90